createdAt,value
2023-05-02T10:44:40.727Z,2.53
2023-05-02T10:47:21.295Z,2.03
2023-05-02T10:50:02.126Z,2.42
2023-05-02T10:52:35.194Z,2.30
2023-05-02T10:55:21.670Z,2.33
2023-05-02T10:58:00.878Z,2.33
2023-05-02T11:00:36.299Z,2.47
2023-05-02T11:03:03.826Z,2.92
2023-05-02T11:05:31.176Z,2.40
2023-05-02T11:08:19.335Z,2.50
2023-05-02T11:10:47.610Z,2.13
2023-05-02T11:13:14.841Z,2.00
2023-05-02T11:15:42.013Z,2.53
2023-05-02T11:18:14.049Z,2.40
2023-05-02T11:20:42.522Z,2.38
2023-05-02T11:23:16.344Z,2.10
2023-05-02T11:25:50.814Z,2.40
2023-05-02T11:28:36.936Z,2.50
2023-05-02T11:31:05.785Z,2.35
2023-05-02T11:33:33.029Z,2.47
2023-05-02T11:36:00.390Z,2.47
2023-05-02T11:38:36.876Z,2.28
2023-05-02T11:41:04.606Z,2.33
2023-05-02T11:43:32.723Z,2.55
2023-05-02T11:46:02.167Z,2.33
2023-05-02T11:48:30.905Z,2.10
2023-05-02T11:51:03.665Z,2.25
2023-05-02T11:53:31.646Z,2.00
2023-05-02T11:56:02.961Z,2.05
2023-05-02T11:58:34.955Z,2.70
2023-05-02T12:01:15.734Z,2.07
2023-05-02T12:03:44.695Z,2.45
2023-05-02T12:06:18.887Z,2.30
2023-05-02T12:08:46.725Z,2.40
2023-05-02T12:11:17.754Z,2.30
2023-05-02T12:13:47.508Z,2.50
2023-05-02T12:16:15.619Z,2.30
2023-05-02T12:18:43.482Z,2.67
2023-05-02T12:21:10.906Z,2.45
2023-05-02T12:23:39.981Z,2.60
2023-05-02T12:26:21.596Z,2.47
2023-05-02T12:28:54.682Z,2.17
2023-05-02T12:31:23.684Z,2.50
2023-05-02T12:33:52.778Z,2.35
2023-05-02T12:36:20.213Z,2.22
2023-05-02T12:38:57.229Z,2.20
2023-05-02T12:41:51.595Z,2.30
2023-05-02T12:44:36.546Z,2.70
2023-05-02T12:47:03.820Z,2.45
2023-05-02T12:49:31.283Z,2.75
2023-05-02T12:51:59.259Z,2.03
2023-05-02T12:54:26.763Z,2.63
2023-05-02T12:56:54.079Z,2.78
2023-05-02T12:59:33.111Z,2.80
2023-05-02T13:02:00.853Z,3.10
2023-05-02T13:04:39.178Z,2.73
2023-05-02T13:07:06.961Z,2.67
2023-05-02T13:09:34.121Z,2.75
2023-05-02T13:12:04.053Z,2.50
2023-05-02T13:14:31.265Z,2.75
2023-05-02T13:16:59.190Z,2.70
2023-05-02T13:19:29.228Z,2.80
2023-05-02T13:21:56.413Z,2.58
2023-05-02T13:24:23.534Z,2.80
2023-05-02T13:26:51.502Z,2.70
2023-05-02T13:29:18.719Z,2.63
2023-05-02T13:31:45.963Z,3.45
2023-05-02T13:34:13.174Z,3.22
2023-05-02T13:36:46.402Z,2.72
2023-05-02T13:39:14.025Z,3.13
2023-05-02T13:41:41.526Z,3.10
2023-05-02T13:44:09.393Z,3.22
2023-05-02T13:46:37.818Z,3.00
2023-05-02T13:49:05.510Z,2.67
2023-05-02T13:51:32.881Z,3.40
2023-05-02T13:54:00.419Z,3.30
2023-05-02T13:56:27.818Z,2.53
2023-05-02T13:58:55.193Z,2.92
2023-05-02T14:01:22.609Z,2.72
2023-05-02T14:03:50.938Z,3.35
2023-05-02T14:06:18.301Z,2.93
2023-05-02T14:08:45.985Z,3.30
2023-05-02T14:11:13.230Z,3.42
2023-05-02T14:13:44.386Z,2.97
2023-05-02T14:16:11.631Z,3.45
2023-05-02T14:18:38.900Z,2.83
2023-05-02T14:21:06.229Z,3.40
2023-05-02T14:23:33.656Z,3.60
2023-05-02T14:26:02.097Z,3.15
2023-05-02T14:28:29.338Z,3.10
2023-05-02T14:30:56.675Z,3.27
2023-05-02T14:33:23.946Z,3.47
2023-05-02T14:35:51.172Z,3.38
2023-05-02T14:38:18.353Z,3.42
2023-05-02T14:40:45.554Z,3.22
2023-05-02T14:43:15.679Z,3.33
2023-05-02T14:45:42.827Z,3.53
2023-05-02T14:48:10.868Z,2.90
2023-05-02T14:50:39.647Z,3.17
2023-05-02T14:53:07.065Z,3.17
2023-05-02T14:55:38.887Z,3.53
2023-05-02T14:58:10.383Z,3.20
2023-05-02T15:00:38.745Z,3.10
2023-05-02T15:03:07.934Z,3.30
2023-05-02T15:05:37.052Z,3.30
2023-05-02T15:08:04.804Z,3.00
2023-05-02T15:10:34.583Z,3.42
2023-05-02T15:13:01.797Z,2.97
2023-05-02T15:15:28.998Z,3.03
2023-05-02T15:17:56.166Z,3.60
2023-05-02T15:20:23.395Z,3.77
2023-05-02T15:22:51.027Z,2.95
2023-05-02T15:25:18.418Z,3.15
2023-05-02T15:27:45.867Z,3.50
2023-05-02T15:30:14.035Z,3.30
2023-05-02T15:32:42.189Z,3.10
2023-05-02T15:35:09.585Z,3.25
2023-05-02T15:37:36.770Z,3.20
2023-05-02T15:40:04.977Z,3.25
2023-05-02T15:42:36.838Z,3.38
2023-05-02T15:45:04.646Z,3.33
2023-05-02T15:47:31.982Z,3.20
2023-05-02T15:49:59.495Z,3.35
2023-05-02T15:52:26.801Z,3.30
2023-05-02T15:54:56.052Z,3.20
2023-05-02T15:57:23.282Z,3.33
2023-05-02T15:59:50.780Z,3.40
2023-05-02T16:02:17.983Z,2.85
2023-05-02T16:04:45.192Z,3.35
2023-05-02T16:07:12.305Z,3.15
2023-05-02T16:09:40.063Z,3.80
2023-05-02T16:12:07.328Z,4.10
2023-05-02T16:14:34.916Z,5.90
2023-05-02T16:17:02.285Z,4.43
2023-05-02T16:19:29.815Z,3.70
2023-05-02T16:21:56.976Z,3.10
2023-05-02T16:24:24.303Z,3.92
2023-05-02T16:26:51.596Z,3.50
2023-05-02T16:29:18.855Z,3.35
2023-05-02T16:31:46.081Z,3.33
2023-05-02T16:34:13.301Z,3.03
2023-05-02T16:36:40.505Z,3.78
2023-05-02T16:39:07.724Z,4.22
2023-05-02T16:41:36.136Z,3.53
2023-05-02T16:44:03.398Z,3.13
2023-05-02T16:46:31.652Z,3.93
2023-05-02T16:48:58.992Z,3.92
2023-05-02T16:51:26.471Z,3.42
2023-05-02T16:53:53.722Z,3.50
2023-05-02T16:56:21.495Z,3.28
2023-05-02T16:58:48.828Z,3.40
2023-05-02T17:01:16.224Z,3.13
2023-05-02T17:03:43.574Z,3.35
2023-05-02T17:06:10.796Z,3.38
2023-05-02T17:08:42.090Z,3.65
2023-05-02T17:11:09.330Z,3.40
2023-05-02T17:13:36.831Z,3.42
2023-05-02T17:16:04.531Z,3.58
2023-05-02T17:18:31.714Z,3.80
2023-05-02T17:20:58.921Z,3.38
2023-05-02T17:23:28.567Z,4.17
2023-05-02T17:25:56.079Z,3.40
2023-05-02T17:28:23.276Z,3.70
2023-05-02T17:30:54.646Z,4.07
2023-05-02T17:33:22.315Z,4.13
2023-05-02T17:35:49.770Z,4.23
2023-05-02T17:38:16.970Z,4.60
2023-05-02T17:40:44.238Z,4.53
2023-05-02T17:43:11.432Z,5.32
2023-05-02T17:45:41.181Z,4.72
2023-05-02T17:48:08.710Z,4.20
2023-05-02T17:50:39.769Z,4.60
2023-05-02T17:53:08.207Z,5.18
2023-05-02T17:55:38.496Z,4.78
2023-05-02T17:58:05.885Z,5.65
2023-05-02T18:00:33.071Z,4.90
2023-05-02T18:03:00.403Z,4.63
2023-05-02T18:05:28.041Z,4.60
2023-05-02T18:07:56.020Z,4.55
2023-05-02T18:10:23.156Z,4.45
2023-05-02T18:12:50.500Z,4.13
2023-05-02T18:15:17.778Z,3.83
2023-05-02T18:17:44.990Z,4.25
2023-05-02T18:20:12.621Z,4.15
2023-05-02T18:22:40.138Z,4.22
2023-05-02T18:25:08.311Z,4.37
2023-05-02T18:27:35.525Z,4.40
2023-05-02T18:30:03.627Z,4.53
2023-05-02T18:32:34.045Z,4.20
2023-05-02T18:35:02.025Z,4.60
2023-05-02T18:37:34.130Z,4.00
2023-05-02T18:40:01.411Z,4.60
2023-05-02T18:42:28.668Z,4.45
2023-05-02T18:44:55.879Z,5.00
2023-05-02T18:47:26.277Z,5.75
2023-05-02T18:49:56.364Z,4.90
2023-05-02T18:52:24.856Z,4.45
2023-05-02T18:54:52.063Z,4.90
2023-05-02T18:57:19.307Z,4.90
2023-05-02T18:59:46.497Z,5.47
2023-05-02T19:02:15.453Z,4.60
2023-05-02T19:04:42.642Z,4.90
2023-05-02T19:07:09.828Z,4.50
2023-05-02T19:09:37.032Z,4.75
2023-05-02T19:12:04.365Z,4.60
2023-05-02T19:14:33.249Z,4.57
2023-05-02T19:17:00.444Z,4.47
2023-05-02T19:19:27.652Z,5.22
2023-05-02T19:21:54.898Z,4.97
2023-05-02T19:24:22.047Z,5.13
2023-05-02T19:26:49.181Z,5.20
2023-05-02T19:29:16.421Z,5.07
2023-05-02T19:31:44.885Z,5.25
2023-05-02T19:34:12.205Z,5.50
2023-05-02T19:36:39.376Z,5.40
2023-05-02T19:39:06.647Z,5.30
2023-05-02T19:41:34.479Z,5.28
2023-05-02T19:44:01.694Z,5.13
2023-05-02T19:46:33.252Z,5.60
2023-05-02T19:49:00.539Z,5.55
2023-05-02T19:51:28.220Z,5.77
2023-05-02T19:53:58.518Z,5.68
2023-05-02T19:56:29.023Z,5.80
2023-05-02T19:58:59.484Z,5.55
2023-05-02T20:01:29.214Z,6.00
2023-05-02T20:03:56.750Z,5.27
2023-05-02T20:06:24.508Z,5.53
2023-05-02T20:08:52.866Z,5.70
2023-05-02T20:11:20.161Z,5.53
2023-05-02T20:13:47.383Z,6.00
2023-05-02T20:16:15.005Z,5.43
2023-05-02T20:18:42.332Z,6.10
2023-05-02T20:21:09.491Z,6.55
2023-05-02T20:23:36.641Z,6.47
2023-05-02T20:26:03.823Z,6.82
2023-05-02T20:28:31.120Z,6.03
2023-05-02T20:30:58.286Z,6.43
2023-05-02T20:33:33.561Z,7.03
2023-05-02T20:36:08.808Z,6.72
2023-05-02T20:38:36.080Z,7.50
2023-05-02T20:41:11.552Z,6.77
2023-05-02T20:43:40.268Z,6.57
2023-05-02T20:46:16.589Z,7.10
2023-05-02T20:48:43.973Z,6.53
2023-05-02T20:51:11.427Z,7.30
2023-05-02T20:53:39.113Z,7.10
2023-05-02T20:56:07.165Z,7.20
2023-05-02T20:58:34.388Z,6.88
2023-05-02T21:01:01.670Z,6.78
2023-05-02T21:03:28.993Z,6.75
2023-05-02T21:05:59.074Z,6.97
2023-05-02T21:08:26.288Z,6.97
2023-05-02T21:10:53.895Z,6.70
2023-05-02T21:13:21.898Z,6.78
2023-05-02T21:15:49.176Z,7.70
2023-05-02T21:18:16.525Z,7.00
2023-05-02T21:20:43.766Z,7.30
2023-05-02T21:23:11.447Z,7.40
2023-05-02T21:25:38.703Z,8.20
2023-05-02T21:28:06.206Z,7.22
2023-05-02T21:30:33.477Z,6.77
2023-05-02T21:33:00.740Z,7.65
2023-05-02T21:35:28.810Z,7.63
2023-05-02T21:37:56.110Z,7.05
2023-05-02T21:40:23.231Z,8.32
2023-05-02T21:42:50.478Z,8.27
2023-05-02T21:45:17.760Z,7.97
2023-05-02T21:47:45.121Z,8.38
2023-05-02T21:50:12.389Z,7.38
2023-05-02T21:52:39.791Z,7.72
2023-05-02T21:55:07.469Z,7.47
2023-05-02T21:57:34.747Z,7.75
2023-05-02T22:00:02.233Z,8.45
2023-05-02T22:02:29.687Z,8.52
2023-05-02T22:04:57.802Z,8.40
2023-05-02T22:07:25.131Z,7.63
2023-05-02T22:09:52.471Z,8.20
2023-05-02T22:12:24.300Z,8.85
2023-05-02T22:14:51.570Z,7.95
2023-05-02T22:17:18.681Z,8.00
2023-05-02T22:19:50.335Z,8.23
2023-05-02T22:22:17.987Z,8.32
2023-05-02T22:24:45.183Z,8.40
2023-05-02T22:27:12.422Z,8.50
2023-05-02T22:29:39.526Z,8.82
2023-05-02T22:32:06.812Z,8.63
2023-05-02T22:34:34.144Z,8.70
2023-05-02T22:37:01.400Z,8.95
2023-05-02T22:39:29.002Z,8.00
2023-05-02T22:41:57.162Z,8.30
2023-05-02T22:44:24.338Z,7.63
2023-05-02T22:46:51.812Z,8.52
2023-05-02T22:49:19.813Z,8.30
2023-05-02T22:51:47.245Z,7.85
2023-05-02T22:54:15.205Z,8.15
2023-05-02T22:56:42.410Z,8.30
2023-05-02T22:59:09.971Z,7.57
2023-05-02T23:01:37.254Z,7.90
2023-05-02T23:04:04.607Z,7.68
2023-05-02T23:06:31.860Z,8.35
2023-05-02T23:08:59.037Z,8.53
2023-05-02T23:11:26.384Z,9.95
2023-05-02T23:13:53.554Z,8.63
2023-05-02T23:16:20.757Z,8.15
2023-05-02T23:18:47.940Z,8.40
2023-05-02T23:21:16.159Z,8.17
2023-05-02T23:23:43.517Z,8.63
2023-05-02T23:26:10.963Z,8.75
2023-05-02T23:28:39.108Z,8.38
2023-05-02T23:31:07.061Z,8.60
2023-05-02T23:33:35.529Z,8.40
2023-05-02T23:36:02.939Z,7.88
2023-05-02T23:38:30.126Z,9.07
2023-05-02T23:40:57.409Z,8.55
2023-05-02T23:43:24.580Z,8.63
2023-05-02T23:45:51.769Z,8.40
2023-05-02T23:48:20.318Z,8.65
2023-05-02T23:50:47.631Z,9.00
2023-05-02T23:53:14.810Z,8.57
2023-05-02T23:55:42.076Z,8.45
2023-05-02T23:58:09.519Z,7.50
